RJCBRJCK

Guest
Details From RJCB - OBIHIRO
To RJCK - KUSHIRO
Flight Number -
Tags generated
Created
Modified
Stats Distance 47 nm / 87 km
Max Altitude 0 ft / 0 m
Waypoints 3
Social Downloads 0
Likes 0
Share VATSIM

Download

Looking for another format? Having issues loading an existing format? Contact us
Advertisement - Login to hide

Notes

Basic altitude profile: - Ascent Rate: 2500ft/min - Ascent Speed: 250kts - Cruise Altitude: 35000ft - Cruise Speed: 420kts - Descent Rate: 1500ft/min - Descent Speed: 250kts Options: - Use NATs: yes - Use PACOTS: yes - Use low airways: yes - Use high airways: yes

Route

RJCB OBE RJCK

ID Type Via Altitude Latitude Longitude Leg Dist Tot Dist Heading (true) Name
O RJCB APT - 0 ft / 0 m 42.73360˚ 143.21743˚ - 0 nm - OBIHIRO
OBE VOR - 0 ft / 0 m 42.73396˚ 143.22045˚ 0 nm 0 nm 81° / 81° OBIHIRO VOR-DME
O RJCK APT - 0 ft / 0 m 43.04097˚ 144.19299˚ 46 nm 46 nm 66° / 67° KUSHIRO

Altitude Profile

Advertisement - Login to hide

RJCB

Details ICAO RJCB (OBO)
Name OBIHIRO
Region Japan
Timezone Asia/Tokyo (UTC+9.0)
Stats Elevation 505 ft / 154 m (AMSL)
Location 42.733601° 143.217426°
Runways 1
Magnetic Variation 9.072° W

METAR

RJCB 111144Z VRB02KT 0400 R35/0700V1600N FZFG VV001 M07/M07 Q0997 RMK A2944

Decode

TAF

TAF AMD TAF AMD RJCB 110945Z 1109/1212 19005KT 9999 FEW005 BKN015 TEMPO 1109/1113 0700 FZFG VV001 BECMG 1110/1112 34011KT TEMPO 1113/1117 1500 -SHSN FEW003 BKN005 BECMG 1118/1121 15006KT BECMG 1200/1203 33005KT

Decode

Departure Runways

ID Width Length Bearing (true) Bearing (mag) Surface Threshold Offset Overrun Length
17 150 ft / 46 m 8,209 ft / 2,502 m 159.37° 168.44° Asphalt 0 ft / 0 m 200 ft / 61 m
35 150 ft / 46 m 8,209 ft / 2,502 m 339.37° 348.44° Asphalt 0 ft / 0 m 200 ft / 61 m

RJCK

Details ICAO RJCK (KUH)
Name KUSHIRO
Region Japan
Timezone Asia/Tokyo (UTC+9.0)
Stats Elevation 327 ft / 100 m (AMSL)
Location 43.040970° 144.192986°
Runways 1
Magnetic Variation 8.950° W

METAR

RJCK 111120Z 06005KT 0900 R35/0275VP2000D FZFG BKN001 BKN002 M01/M01 Q0997 RMK 5ST001 7ST002 A2946

Decode

TAF

TAF RJCK 110515Z 1106/1212 01005KT 9999 FEW003 BKN015 TEMPO 1106/1109 0700 FG VV001 TEMPO 1109/1116 1500 BR FEW001 BKN003 BECMG 1115/1117 31010KT TEMPO 1116/1121 3000 -SHSN FEW005 BKN008 BECMG 1121/1200 25010KT

Decode

Destination Runways

ID Width Length Bearing (true) Bearing (mag) Surface Threshold Offset Overrun Length
17 150 ft / 46 m 8,209 ft / 2,502 m 159.02° 167.97° Asphalt 0 ft / 0 m 200 ft / 61 m
35 150 ft / 46 m 8,209 ft / 2,502 m 339.03° 347.98° Asphalt 0 ft / 0 m 200 ft / 61 m

Approach Navaids

Runway Type Ident Frequency Range Bearing (true) Bearing (mag) Slope Elevation
17 Localiser IKS 108.90 MHz 18 nm / 33 km 159.03° 167.98° - 327 ft / 100 m (AMSL)
17 Glidescope IKS 108.90 MHz 10 nm / 19 km 159.03° 167.98° 3.00° 322 ft / 98 m (AMSL)